createdAt,value
2018-09-16T00:01:41.985Z,90.29
2018-09-16T00:04:18.790Z,89.44
2018-09-16T00:06:47.160Z,91.01
2018-09-16T00:09:15.720Z,90.65
2018-09-16T00:11:44.193Z,91.13
2018-09-16T00:14:12.608Z,91.53
2018-09-16T00:16:42.135Z,91.08
2018-09-16T00:19:10.686Z,92.27
2018-09-16T00:21:39.460Z,92.48
2018-09-16T00:24:08.036Z,92.38
2018-09-16T00:26:36.421Z,92.08
2018-09-16T00:29:04.891Z,91.93
2018-09-16T00:31:33.615Z,92.38
2018-09-16T00:34:02.002Z,93.34
2018-09-16T00:36:36.486Z,92.57
2018-09-16T00:39:07.438Z,92.30
2018-09-16T00:41:35.827Z,93.28
2018-09-16T00:44:04.524Z,94.05
2018-09-16T00:46:47.017Z,93.54
2018-09-16T00:49:15.339Z,92.99
2018-09-16T00:51:43.736Z,93.58
2018-09-16T00:54:12.122Z,93.25
2018-09-16T00:56:40.535Z,93.39
2018-09-16T00:59:09.177Z,94.28
2018-09-16T01:01:37.715Z,94.31
2018-09-16T01:04:06.232Z,95.04
2018-09-16T01:06:38.455Z,94.40
2018-09-16T01:09:13.186Z,93.66
2018-09-16T01:11:41.599Z,94.40
2018-09-16T01:14:10.332Z,93.60
2018-09-16T01:16:40.015Z,94.36
2018-09-16T01:19:09.082Z,95.20
2018-09-16T01:21:38.090Z,95.26
2018-09-16T01:24:06.795Z,94.49
2018-09-16T01:26:35.712Z,93.86
2018-09-16T01:29:04.325Z,95.05
2018-09-16T01:31:32.837Z,94.49
2018-09-16T01:34:01.245Z,94.78
2018-09-16T01:36:29.706Z,94.66
2018-09-16T01:38:58.059Z,95.34
2018-09-16T01:41:26.669Z,95.21
2018-09-16T01:43:55.123Z,95.27
2018-09-16T01:46:26.951Z,95.14
2018-09-16T01:48:55.442Z,96.04
2018-09-16T01:51:23.898Z,94.82
2018-09-16T01:53:52.248Z,94.70
2018-09-16T01:56:20.699Z,94.55
2018-09-16T01:58:49.174Z,94.42
2018-09-16T02:01:17.637Z,94.75
2018-09-16T02:03:46.215Z,94.78
2018-09-16T02:06:16.699Z,95.12
2018-09-16T02:08:45.057Z,95.46
2018-09-16T02:11:13.565Z,95.06
2018-09-16T02:13:42.082Z,95.34
2018-09-16T02:16:10.527Z,95.09
2018-09-16T02:18:38.945Z,93.52
2018-09-16T02:21:07.116Z,94.52
2018-09-16T02:23:35.379Z,94.82
2018-09-16T02:26:07.386Z,96.32
2018-09-16T02:28:35.447Z,95.48
2018-09-16T02:31:03.459Z,94.46
2018-09-16T02:33:31.651Z,94.82
2018-09-16T02:35:59.803Z,95.99
2018-09-16T02:38:27.892Z,96.31
2018-09-16T02:40:56.021Z,100.00
2018-09-16T02:43:24.048Z,96.66
2018-09-16T02:45:57.541Z,96.05
2018-09-16T02:48:25.650Z,97.73
2018-09-16T02:50:53.691Z,96.70
2018-09-16T02:53:21.904Z,97.05
2018-09-16T02:55:50.319Z,96.99
2018-09-16T02:58:18.395Z,97.08
2018-09-16T03:00:46.594Z,97.17
2018-09-16T03:03:14.673Z,97.25
2018-09-16T03:05:49.464Z,97.55
2018-09-16T03:08:18.623Z,98.02
2018-09-16T03:10:46.797Z,98.71
2018-09-16T03:13:15.441Z,97.12
2018-09-16T03:15:43.890Z,96.91
2018-09-16T03:18:12.120Z,96.26
2018-09-16T03:20:40.160Z,96.89
2018-09-16T03:23:08.513Z,96.87
2018-09-16T03:25:37.611Z,97.76
2018-09-16T03:28:05.824Z,99.03
2018-09-16T03:30:33.994Z,97.86
2018-09-16T03:33:02.230Z,97.79
2018-09-16T03:35:30.269Z,97.99
2018-09-16T03:37:58.288Z,98.34
2018-09-16T03:40:26.400Z,99.52
2018-09-16T03:42:54.595Z,99.31
2018-09-16T03:45:23.714Z,100.00
2018-09-16T03:47:51.784Z,99.29
2018-09-16T03:50:20.180Z,99.37
2018-09-16T03:52:48.212Z,99.43
2018-09-16T03:55:18.466Z,99.26
2018-09-16T03:57:46.750Z,99.77
2018-09-16T04:00:15.015Z,98.91
2018-09-16T04:02:43.142Z,98.60
2018-09-16T04:05:11.235Z,99.65
2018-09-16T04:07:39.375Z,100.00
2018-09-16T04:10:07.498Z,100.00
2018-09-16T04:12:35.771Z,100.00
2018-09-16T04:15:04.453Z,100.00
2018-09-16T04:17:32.682Z,98.89
2018-09-16T04:20:00.984Z,99.14
2018-09-16T04:22:29.203Z,100.00
2018-09-16T04:24:57.602Z,100.00
2018-09-16T04:27:25.658Z,100.00
2018-09-16T04:29:53.705Z,99.84
2018-09-16T04:32:21.871Z,99.73
2018-09-16T04:34:50.047Z,99.06
2018-09-16T04:37:18.188Z,98.16
2018-09-16T04:39:46.223Z,97.39
2018-09-16T04:42:14.276Z,96.50
2018-09-16T04:44:42.532Z,94.69
2018-09-16T04:47:10.707Z,91.83
2018-09-16T04:49:38.816Z,89.59
2018-09-16T04:52:07.043Z,90.07
2018-09-16T04:54:35.241Z,90.11
2018-09-16T04:57:03.393Z,90.32
2018-09-16T04:59:32.055Z,88.34
2018-09-16T05:02:00.129Z,87.50
2018-09-16T05:04:28.307Z,85.17
2018-09-16T05:06:56.684Z,83.08
2018-09-16T05:09:24.810Z,81.11
2018-09-16T05:11:53.354Z,78.11
2018-09-16T05:14:21.513Z,78.55
2018-09-16T05:16:49.846Z,80.93
2018-09-16T05:19:18.149Z,80.29
2018-09-16T05:21:46.371Z,78.54
2018-09-16T05:24:14.438Z,77.72
2018-09-16T05:26:45.023Z,75.33
2018-09-16T05:29:13.468Z,76.09
2018-09-16T05:31:42.031Z,75.62
2018-09-16T05:34:10.359Z,76.71
2018-09-16T05:36:41.758Z,77.05
2018-09-16T05:39:11.418Z,78.62
2018-09-16T05:41:40.410Z,76.78
2018-09-16T05:44:09.193Z,74.53
2018-09-16T05:46:39.262Z,75.45
2018-09-16T05:49:07.986Z,76.64
2018-09-16T05:51:37.210Z,81.83
2018-09-16T05:54:06.047Z,81.71
2018-09-16T05:56:34.822Z,78.44
2018-09-16T05:59:03.773Z,77.61
2018-09-16T06:01:32.312Z,75.09
2018-09-16T06:04:01.042Z,75.15
2018-09-16T06:06:34.458Z,76.13
2018-09-16T06:09:03.213Z,75.24
2018-09-16T06:11:32.496Z,77.24
2018-09-16T06:14:01.254Z,76.82
2018-09-16T06:16:30.028Z,76.35
2018-09-16T06:18:58.662Z,76.62
2018-09-16T06:21:27.462Z,75.37
2018-09-16T06:23:57.051Z,75.02
2018-09-16T06:26:27.693Z,73.54
2018-09-16T06:28:59.549Z,74.51
2018-09-16T06:31:28.783Z,72.95
2018-09-16T06:33:57.730Z,73.85
2018-09-16T06:36:31.767Z,73.53
2018-09-16T06:39:03.756Z,75.30
2018-09-16T06:41:35.732Z,74.23
2018-09-16T06:44:06.941Z,71.82
2018-09-16T06:46:42.515Z,69.52
2018-09-16T06:49:11.608Z,69.37
2018-09-16T06:51:41.142Z,69.24
2018-09-16T06:54:09.982Z,68.05
2018-09-16T06:56:39.685Z,66.41
2018-09-16T06:59:08.364Z,67.93
2018-09-16T07:01:37.514Z,67.69
2018-09-16T07:04:06.385Z,65.41
2018-09-16T07:06:37.759Z,61.69
2018-09-16T07:09:11.925Z,57.99
2018-09-16T07:11:42.429Z,59.28
2018-09-16T07:14:17.343Z,57.67
2018-09-16T07:16:46.517Z,55.69
2018-09-16T07:19:15.383Z,51.95
2018-09-16T07:21:44.010Z,51.18
2018-09-16T07:24:12.635Z,53.38
2018-09-16T07:26:43.117Z,53.88
2018-09-16T07:29:11.508Z,53.48
2018-09-16T07:31:39.930Z,52.41
2018-09-16T07:34:08.450Z,49.76
2018-09-16T07:36:37.057Z,51.63
2018-09-16T07:39:08.282Z,51.85
2018-09-16T07:41:37.142Z,51.05
2018-09-16T07:44:07.336Z,49.25
2018-09-16T07:46:36.204Z,51.38
2018-09-16T07:49:06.270Z,51.26
2018-09-16T07:51:36.407Z,51.88
2018-09-16T07:54:06.857Z,52.89
2018-09-16T07:56:35.943Z,51.77
2018-09-16T07:59:04.430Z,50.77
2018-09-16T08:01:32.899Z,51.20
2018-09-16T08:04:01.654Z,48.14
2018-09-16T08:06:29.935Z,51.14
2018-09-16T08:08:58.373Z,49.21
2018-09-16T08:11:26.758Z,49.79
2018-09-16T08:13:55.543Z,48.63
2018-09-16T08:16:24.133Z,48.62
2018-09-16T08:18:54.315Z,48.19
2018-09-16T08:21:23.634Z,47.75
2018-09-16T08:23:55.443Z,46.68
2018-09-16T08:26:27.389Z,48.78
2018-09-16T08:28:57.886Z,46.44
2018-09-16T08:31:26.907Z,47.14
2018-09-16T08:33:55.607Z,47.66
2018-09-16T08:36:24.239Z,45.01
2018-09-16T08:38:53.834Z,47.81
2018-09-16T08:41:22.581Z,44.72
2018-09-16T08:43:51.086Z,47.13
2018-09-16T08:46:20.903Z,45.40
2018-09-16T08:48:49.710Z,44.67
2018-09-16T08:51:18.497Z,44.51
2018-09-16T08:53:49.113Z,44.43
2018-09-16T08:56:19.667Z,44.17
2018-09-16T08:58:48.157Z,47.64
2018-09-16T09:01:18.686Z,47.69
2018-09-16T09:03:47.413Z,48.40
2018-09-16T09:06:15.997Z,49.49
2018-09-16T09:08:44.437Z,47.48
2018-09-16T09:11:13.106Z,48.12
2018-09-16T09:13:42.040Z,43.75
2018-09-16T09:16:11.454Z,44.03
2018-09-16T09:18:41.384Z,42.78
2018-09-16T09:21:10.390Z,45.53
2018-09-16T09:23:42.892Z,47.43
2018-09-16T09:26:14.880Z,48.04
2018-09-16T09:28:44.058Z,48.15
2018-09-16T09:31:14.768Z,48.61
2018-09-16T09:33:44.777Z,46.29
2018-09-16T09:36:13.595Z,46.76
2018-09-16T09:38:42.404Z,47.30
2018-09-16T09:41:11.350Z,43.30
2018-09-16T09:43:40.246Z,43.30
2018-09-16T09:46:08.840Z,42.33
2018-09-16T09:48:37.483Z,44.68
2018-09-16T09:51:05.477Z,44.63
2018-09-16T09:53:33.821Z,46.43
2018-09-16T09:56:02.620Z,47.18
2018-09-16T09:58:31.202Z,46.45
2018-09-16T10:00:59.610Z,45.68
2018-09-16T10:03:28.090Z,44.82
2018-09-16T10:05:56.571Z,45.51
2018-09-16T10:08:31.525Z,46.29
2018-09-16T10:11:00.401Z,46.43
2018-09-16T10:13:28.816Z,47.76
2018-09-16T10:15:57.350Z,47.03
2018-09-16T10:18:25.702Z,44.00
2018-09-16T10:20:54.294Z,46.04
2018-09-16T10:23:22.513Z,45.98
2018-09-16T10:25:51.479Z,46.06
2018-09-16T10:28:20.238Z,47.77
2018-09-16T10:30:48.503Z,48.21
2018-09-16T10:33:16.759Z,45.40
2018-09-16T10:35:45.723Z,45.48
2018-09-16T10:38:15.307Z,45.33
2018-09-16T10:40:43.988Z,45.85
2018-09-16T10:43:13.582Z,44.63
2018-09-16T10:45:42.673Z,47.50
2018-09-16T10:48:11.630Z,45.31
2018-09-16T10:50:41.656Z,43.36
2018-09-16T10:53:10.779Z,42.68
2018-09-16T10:55:42.288Z,42.50
2018-09-16T10:58:15.060Z,41.41
2018-09-16T11:00:43.954Z,42.74
2018-09-16T11:03:14.137Z,42.53
2018-09-16T11:05:43.517Z,42.51
2018-09-16T11:08:12.483Z,41.60
2018-09-16T11:10:41.434Z,41.26
2018-09-16T11:13:11.079Z,41.70
2018-09-16T11:15:41.217Z,41.82
2018-09-16T11:18:10.355Z,41.70
2018-09-16T11:20:39.773Z,40.61
2018-09-16T11:23:10.061Z,41.73
2018-09-16T11:25:40.292Z,39.72
2018-09-16T11:28:09.333Z,41.01
2018-09-16T11:30:38.660Z,41.53
2018-09-16T11:33:08.472Z,40.77
2018-09-16T11:35:38.330Z,39.33
2018-09-16T11:38:08.475Z,38.06
2018-09-16T11:40:38.251Z,38.61
2018-09-16T11:43:08.910Z,37.79
2018-09-16T11:45:39.867Z,40.21
2018-09-16T11:48:09.328Z,40.74
2018-09-16T11:50:39.247Z,40.87
2018-09-16T11:53:08.433Z,41.52
2018-09-16T11:55:38.297Z,42.04
2018-09-16T11:58:08.082Z,40.92
2018-09-16T12:00:37.852Z,41.07
2018-09-16T12:03:07.675Z,39.09
2018-09-16T12:05:37.328Z,39.66
2018-09-16T12:08:07.256Z,38.33
2018-09-16T12:10:36.869Z,38.17
2018-09-16T12:13:06.695Z,40.08
2018-09-16T12:15:35.639Z,39.87
2018-09-16T12:18:05.212Z,41.70
2018-09-16T12:20:34.146Z,44.07
2018-09-16T12:23:03.999Z,43.77
2018-09-16T12:25:32.840Z,44.06
2018-09-16T12:28:02.536Z,43.61
2018-09-16T12:30:32.059Z,42.11
2018-09-16T12:33:01.794Z,41.19
2018-09-16T12:35:31.256Z,42.95
2018-09-16T12:38:00.380Z,42.52
2018-09-16T12:40:30.176Z,43.08
2018-09-16T12:42:58.963Z,44.22
2018-09-16T12:45:27.895Z,43.35
2018-09-16T12:47:58.911Z,42.92
2018-09-16T12:50:27.970Z,43.84
2018-09-16T12:52:56.797Z,42.57
2018-09-16T12:55:26.225Z,41.28
2018-09-16T12:57:55.875Z,40.93
2018-09-16T13:00:26.569Z,41.24
2018-09-16T13:03:00.186Z,41.96
2018-09-16T13:05:41.009Z,42.43
2018-09-16T13:08:16.854Z,43.55
2018-09-16T13:10:51.952Z,42.99
2018-09-16T13:13:29.534Z,42.06
2018-09-16T13:16:06.931Z,42.59
2018-09-16T13:18:46.057Z,42.79
2018-09-16T13:21:25.448Z,42.44
2018-09-16T13:24:00.339Z,42.56
2018-09-16T13:26:37.042Z,43.46
2018-09-16T13:29:09.132Z,42.68
2018-09-16T13:31:41.043Z,43.10
2018-09-16T13:34:14.955Z,43.48
2018-09-16T13:36:45.545Z,44.01
2018-09-16T13:39:15.707Z,43.52
2018-09-16T13:41:44.182Z,45.64
2018-09-16T13:44:13.253Z,45.91
2018-09-16T13:46:41.693Z,47.34
2018-09-16T13:49:09.946Z,48.37
2018-09-16T13:51:38.060Z,49.20
2018-09-16T13:54:07.807Z,49.45
2018-09-16T13:56:38.259Z,49.45
2018-09-16T13:59:07.126Z,48.95
2018-09-16T14:01:37.701Z,47.43
2018-09-16T14:04:08.056Z,48.00
2018-09-16T14:06:37.186Z,46.23
2018-09-16T14:09:08.420Z,46.03
2018-09-16T14:11:37.266Z,46.08
2018-09-16T14:14:06.026Z,45.22
2018-09-16T14:16:35.845Z,44.80
2018-09-16T14:19:05.012Z,45.55
2018-09-16T14:21:33.991Z,45.11
2018-09-16T14:24:02.715Z,44.94
2018-09-16T14:26:31.662Z,45.87
2018-09-16T14:29:00.378Z,46.34
2018-09-16T14:31:28.969Z,47.02
2018-09-16T14:33:57.610Z,46.80
2018-09-16T14:36:26.454Z,48.17
2018-09-16T14:38:55.317Z,48.13
2018-09-16T14:41:25.160Z,48.39
2018-09-16T14:43:54.688Z,47.27
2018-09-16T14:46:24.531Z,47.48
2018-09-16T14:48:53.810Z,46.55
2018-09-16T14:51:22.384Z,47.00
2018-09-16T14:53:51.222Z,46.93
2018-09-16T14:56:20.091Z,46.46
2018-09-16T14:58:48.898Z,47.08
2018-09-16T15:01:17.541Z,47.22
2018-09-16T15:03:46.507Z,47.67
2018-09-16T15:06:15.514Z,48.08
2018-09-16T15:08:45.987Z,47.89
2018-09-16T15:11:14.935Z,49.12
2018-09-16T15:13:43.523Z,50.29
2018-09-16T15:16:12.774Z,49.61
2018-09-16T15:18:41.818Z,50.32
2018-09-16T15:21:10.870Z,50.91
2018-09-16T15:23:39.968Z,52.25
2018-09-16T15:26:08.689Z,52.74
2018-09-16T15:28:37.701Z,53.24
2018-09-16T15:31:06.438Z,53.80
2018-09-16T15:33:35.364Z,53.29
2018-09-16T15:39:00.192Z,56.22
2018-09-16T15:41:28.671Z,55.87
2018-09-16T15:43:57.376Z,56.18
2018-09-16T15:46:25.819Z,56.65
2018-09-16T15:48:54.429Z,56.09
2018-09-16T15:51:22.978Z,55.31
2018-09-16T15:53:51.819Z,56.74
2018-09-16T15:56:20.368Z,55.94
2018-09-16T15:58:49.262Z,55.76
2018-09-16T16:01:17.871Z,55.68
2018-09-16T16:03:46.767Z,55.38
2018-09-16T16:06:15.684Z,55.55
2018-09-16T16:08:45.121Z,54.69
2018-09-16T16:11:13.922Z,54.38
2018-09-16T16:13:43.113Z,56.36
2018-09-16T16:16:11.751Z,56.76
2018-09-16T16:18:40.566Z,57.47
2018-09-16T16:21:09.322Z,57.95
2018-09-16T16:23:37.993Z,57.44
2018-09-16T16:26:06.680Z,58.65
2018-09-16T16:28:35.250Z,58.75
2018-09-16T16:31:03.871Z,59.58
2018-09-16T16:33:33.791Z,60.55
2018-09-16T16:36:02.676Z,60.97
2018-09-16T16:38:31.679Z,61.19
2018-09-16T16:41:00.256Z,62.00
2018-09-16T16:43:28.903Z,62.34
2018-09-16T16:45:57.554Z,62.29
2018-09-16T16:48:26.037Z,63.67
2018-09-16T16:50:54.789Z,63.39
2018-09-16T16:53:23.589Z,63.75
2018-09-16T16:55:52.314Z,63.88
2018-09-16T16:58:22.146Z,64.54
2018-09-16T17:00:50.939Z,64.74
2018-09-16T17:03:19.417Z,64.81
2018-09-16T17:05:48.198Z,65.09
2018-09-16T17:08:16.951Z,65.93
2018-09-16T17:10:45.795Z,65.34
2018-09-16T17:13:14.479Z,65.76
2018-09-16T17:15:43.304Z,66.39
2018-09-16T17:18:12.215Z,66.31
2018-09-16T17:20:41.765Z,67.12
2018-09-16T17:23:11.924Z,67.08
2018-09-16T17:25:42.055Z,67.34
2018-09-16T17:28:11.640Z,67.31
2018-09-16T17:30:40.588Z,67.35
2018-09-16T17:33:12.415Z,67.67
2018-09-16T17:35:43.027Z,67.22
2018-09-16T17:38:16.652Z,67.43
2018-09-16T17:40:45.938Z,68.27
2018-09-16T17:43:17.699Z,68.05
2018-09-16T17:45:46.775Z,68.17
2018-09-16T17:48:16.776Z,67.83
2018-09-16T17:50:50.386Z,68.55
2018-09-16T17:53:19.408Z,67.96
2018-09-16T17:55:48.273Z,69.66
2018-09-16T17:58:17.019Z,69.16
2018-09-16T18:00:45.766Z,69.68
2018-09-16T18:03:14.488Z,70.05
2018-09-16T18:05:43.041Z,70.45
2018-09-16T18:08:11.803Z,70.03
2018-09-16T18:10:40.451Z,70.62
2018-09-16T18:13:09.022Z,71.81
2018-09-16T18:15:37.789Z,71.52
2018-09-16T18:18:06.757Z,72.36
2018-09-16T18:20:35.527Z,71.54
2018-09-16T18:23:04.379Z,71.55
2018-09-16T18:25:33.039Z,71.90
2018-09-16T18:28:01.770Z,73.13
2018-09-16T18:30:30.609Z,72.53
2018-09-16T18:32:59.098Z,72.97
2018-09-16T18:35:27.913Z,73.83
2018-09-16T18:37:56.539Z,74.09
2018-09-16T18:40:24.869Z,73.94
2018-09-16T18:42:52.974Z,74.18
2018-09-16T18:45:21.181Z,74.57
2018-09-16T18:47:50.301Z,74.83
2018-09-16T18:50:18.570Z,75.27
2018-09-16T18:52:46.883Z,74.78
2018-09-16T18:55:15.037Z,76.08
2018-09-16T18:57:44.194Z,75.14
2018-09-16T19:00:12.529Z,76.05
2018-09-16T19:02:40.816Z,75.81
2018-09-16T19:05:08.912Z,76.52
2018-09-16T19:07:37.138Z,76.25
2018-09-16T19:10:05.331Z,76.23
2018-09-16T19:12:33.466Z,76.69
2018-09-16T19:15:01.631Z,76.30
2018-09-16T19:17:29.888Z,77.22
2018-09-16T19:19:58.063Z,77.47
2018-09-16T19:22:26.113Z,77.70
2018-09-16T19:24:57.028Z,77.75
2018-09-16T19:27:30.702Z,77.27
2018-09-16T19:30:01.748Z,77.92
2018-09-16T19:32:30.888Z,78.16
2018-09-16T19:34:58.985Z,78.41
2018-09-16T19:37:27.154Z,78.71
2018-09-16T19:39:55.487Z,78.75
2018-09-16T19:42:23.602Z,79.34
2018-09-16T19:44:51.735Z,79.29
2018-09-16T19:47:20.110Z,79.64
2018-09-16T19:49:48.207Z,80.27
2018-09-16T19:52:16.280Z,79.98
2018-09-16T19:54:44.412Z,80.22
2018-09-16T19:57:12.572Z,80.25
2018-09-16T19:59:40.716Z,80.07
2018-09-16T20:02:08.820Z,80.59
2018-09-16T20:04:36.950Z,79.31
2018-09-16T20:07:05.133Z,79.63
2018-09-16T20:09:33.279Z,79.81
2018-09-16T20:12:01.421Z,80.53
2018-09-16T20:14:29.601Z,80.60
2018-09-16T20:16:57.878Z,81.20
2018-09-16T20:19:26.035Z,80.67
2018-09-16T20:21:54.110Z,81.32
2018-09-16T20:24:22.175Z,81.35
2018-09-16T20:26:50.422Z,81.63
2018-09-16T20:29:18.591Z,81.15
2018-09-16T20:31:46.619Z,81.04
2018-09-16T20:34:14.811Z,81.32
2018-09-16T20:36:43.427Z,82.42
2018-09-16T20:39:12.148Z,81.34
2018-09-16T20:41:41.359Z,81.35
2018-09-16T20:44:09.468Z,82.12
2018-09-16T20:46:37.715Z,82.37
2018-09-16T20:49:06.079Z,81.65
2018-09-16T20:51:34.175Z,81.86
2018-09-16T20:54:02.314Z,82.57
2018-09-16T20:56:30.527Z,83.20
2018-09-16T20:58:58.647Z,82.51
2018-09-16T21:01:26.889Z,82.60
2018-09-16T21:03:55.301Z,81.73
2018-09-16T21:06:23.344Z,82.82
2018-09-16T21:08:51.496Z,82.65
2018-09-16T21:11:20.819Z,83.01
2018-09-16T21:13:48.992Z,82.86
2018-09-16T21:16:17.349Z,83.47
2018-09-16T21:18:46.081Z,83.06
2018-09-16T21:21:14.297Z,84.16
2018-09-16T21:23:42.366Z,83.52
2018-09-16T21:26:10.677Z,83.75
2018-09-16T21:28:38.876Z,83.77
2018-09-16T21:31:06.932Z,83.53
2018-09-16T21:33:34.995Z,83.12
2018-09-16T21:36:03.235Z,83.61
2018-09-16T21:38:31.477Z,83.73
2018-09-16T21:40:59.510Z,83.80
2018-09-16T21:43:29.063Z,83.88
2018-09-16T21:45:57.231Z,83.22
2018-09-16T21:48:25.596Z,82.94
2018-09-16T21:50:53.920Z,83.41
2018-09-16T21:53:21.939Z,83.34
2018-09-16T21:55:49.976Z,82.99
2018-09-16T21:58:18.101Z,83.17
2018-09-16T22:00:52.148Z,82.96
2018-09-16T22:03:20.648Z,83.41
2018-09-16T22:05:48.691Z,82.99
2018-09-16T22:08:16.896Z,83.85
2018-09-16T22:10:45.414Z,83.94
2018-09-16T22:13:13.511Z,83.57
2018-09-16T22:15:41.684Z,84.16
2018-09-16T22:18:09.760Z,84.30
2018-09-16T22:20:38.308Z,84.21
2018-09-16T22:23:06.347Z,83.83
2018-09-16T22:25:34.454Z,84.15
2018-09-16T22:28:02.866Z,83.88
2018-09-16T22:30:30.840Z,84.61
2018-09-16T22:32:58.890Z,85.39
2018-09-16T22:35:27.091Z,84.50
2018-09-16T22:37:55.229Z,84.00
2018-09-16T22:40:23.344Z,84.22
2018-09-16T22:42:51.817Z,85.01
2018-09-16T22:45:19.833Z,84.17
2018-09-16T22:47:47.953Z,85.34
2018-09-16T22:50:15.986Z,85.35
2018-09-16T22:52:44.027Z,85.52
2018-09-16T22:55:12.128Z,85.29
2018-09-16T22:57:40.254Z,85.41
2018-09-16T23:00:12.062Z,84.86
2018-09-16T23:02:40.177Z,85.50
2018-09-16T23:05:08.174Z,85.37
2018-09-16T23:07:36.242Z,85.22
2018-09-16T23:10:04.232Z,85.93
2018-09-16T23:12:32.242Z,86.32
2018-09-16T23:15:00.397Z,85.68
2018-09-16T23:17:28.630Z,86.09
2018-09-16T23:19:56.803Z,86.27
2018-09-16T23:22:24.927Z,85.41
2018-09-16T23:24:52.921Z,86.36
2018-09-16T23:27:21.057Z,86.97
2018-09-16T23:29:49.116Z,87.28
2018-09-16T23:32:17.092Z,86.97
2018-09-16T23:34:45.149Z,87.45
2018-09-16T23:37:13.152Z,87.35
2018-09-16T23:39:41.138Z,87.54
2018-09-16T23:42:09.140Z,87.31
2018-09-16T23:44:37.193Z,87.65
2018-09-16T23:47:05.347Z,87.56
2018-09-16T23:49:33.329Z,87.54
2018-09-16T23:52:01.379Z,88.35
2018-09-16T23:54:29.436Z,88.49
2018-09-16T23:56:57.574Z,88.07
2018-09-16T23:59:25.649Z,88.14
